createdAt,value
2023-03-31T00:00:19.516Z,12.10
2023-03-31T00:02:49.703Z,12.20
2023-03-31T00:05:19.930Z,12.20
2023-03-31T00:07:55.983Z,12.20
2023-03-31T00:10:25.697Z,12.30
2023-03-31T00:12:55.602Z,12.20
2023-03-31T00:15:25.626Z,12.30
2023-03-31T00:17:55.669Z,12.20
2023-03-31T00:20:25.644Z,12.30
2023-03-31T00:22:58.126Z,12.30
2023-03-31T00:25:28.042Z,12.20
2023-03-31T00:27:57.750Z,12.40
2023-03-31T00:30:29.629Z,12.30
2023-03-31T00:33:03.341Z,12.30
2023-03-31T00:35:33.454Z,12.20
2023-03-31T00:38:05.074Z,12.20
2023-03-31T00:40:35.109Z,12.30
2023-03-31T00:43:05.120Z,12.40
2023-03-31T00:45:35.265Z,12.40
2023-03-31T00:48:10.725Z,12.30
2023-03-31T00:50:46.430Z,12.30
2023-03-31T00:53:20.529Z,12.30
2023-03-31T00:55:54.055Z,12.40
2023-03-31T00:58:28.669Z,12.30
2023-03-31T01:01:00.046Z,12.30
2023-03-31T01:03:31.103Z,12.30
2023-03-31T01:06:04.963Z,12.40
2023-03-31T01:08:37.759Z,12.40
2023-03-31T01:11:10.126Z,12.40
2023-03-31T01:13:42.117Z,12.40
2023-03-31T01:16:12.400Z,12.30
2023-03-31T01:18:46.938Z,12.40
2023-03-31T01:21:54.324Z,12.40
2023-03-31T01:25:02.022Z,12.40
2023-03-31T01:27:49.511Z,12.40
2023-03-31T01:30:56.037Z,12.30
2023-03-31T01:34:18.572Z,12.30
2023-03-31T01:37:12.078Z,12.40
2023-03-31T01:40:12.663Z,12.40
2023-03-31T01:42:50.564Z,12.40
2023-03-31T01:45:31.950Z,12.40
2023-03-31T01:48:09.145Z,12.30
2023-03-31T01:50:47.142Z,12.30
2023-03-31T01:53:24.222Z,12.30
2023-03-31T01:56:06.297Z,12.20
2023-03-31T01:58:42.374Z,12.10
2023-03-31T02:01:17.748Z,12.30
2023-03-31T02:03:51.684Z,12.20
2023-03-31T02:06:26.055Z,12.20
2023-03-31T02:09:00.773Z,12.20
2023-03-31T02:11:36.120Z,12.10
2023-03-31T02:14:08.032Z,12.10
2023-03-31T02:16:42.417Z,12.20
2023-03-31T02:19:14.770Z,12.20
2023-03-31T02:21:45.302Z,12.10
2023-03-31T02:24:16.954Z,12.10
2023-03-31T02:26:55.886Z,12.20
2023-03-31T02:29:26.090Z,12.20
2023-03-31T02:32:02.901Z,12.20
2023-03-31T02:34:33.306Z,12.20
2023-03-31T02:37:03.658Z,12.20
2023-03-31T02:39:37.124Z,12.30
2023-03-31T02:42:09.084Z,12.30
2023-03-31T02:44:40.637Z,12.30
2023-03-31T02:47:13.610Z,12.30
2023-03-31T02:49:51.427Z,12.20
2023-03-31T02:52:47.653Z,12.20
2023-03-31T02:55:39.480Z,12.30
2023-03-31T02:58:48.312Z,12.20
2023-03-31T03:01:51.310Z,12.20
2023-03-31T03:04:39.540Z,12.10
2023-03-31T03:07:15.805Z,12.40
2023-03-31T03:09:54.111Z,12.30
2023-03-31T03:12:30.275Z,12.30
2023-03-31T03:15:07.494Z,12.20
2023-03-31T03:17:41.336Z,12.30
2023-03-31T03:20:12.117Z,12.30
2023-03-31T03:22:42.930Z,12.30
2023-03-31T03:25:15.104Z,12.50
2023-03-31T03:27:46.251Z,12.40
2023-03-31T03:30:18.223Z,12.40
2023-03-31T03:32:48.843Z,12.40
2023-03-31T03:35:19.682Z,12.40
2023-03-31T03:37:49.588Z,12.30
2023-03-31T03:40:20.427Z,12.50
2023-03-31T03:42:50.650Z,12.50
2023-03-31T03:45:23.283Z,12.40
2023-03-31T03:47:55.495Z,12.50
2023-03-31T03:50:25.410Z,12.50
2023-03-31T03:52:55.637Z,12.50
2023-03-31T03:55:27.082Z,12.30
2023-03-31T03:57:56.884Z,12.30
2023-03-31T04:00:28.953Z,12.30
2023-03-31T04:02:58.882Z,12.40
2023-03-31T04:05:29.276Z,12.40
2023-03-31T04:07:59.604Z,12.40
2023-03-31T04:10:30.180Z,12.30
2023-03-31T04:13:00.263Z,12.30
2023-03-31T04:15:32.316Z,12.30
2023-03-31T04:18:02.484Z,12.40
2023-03-31T04:20:32.350Z,12.20
2023-03-31T04:23:03.304Z,12.20
2023-03-31T04:25:34.341Z,12.20
2023-03-31T04:28:04.145Z,12.20
2023-03-31T04:30:40.167Z,12.20
2023-03-31T04:33:10.250Z,12.30
2023-03-31T04:35:53.970Z,12.20
2023-03-31T04:38:28.482Z,12.10
2023-03-31T04:40:58.533Z,12.20
2023-03-31T04:43:28.502Z,12.30
2023-03-31T04:46:00.134Z,12.20
2023-03-31T04:48:30.211Z,12.20
2023-03-31T04:51:00.247Z,12.20
2023-03-31T04:53:30.534Z,12.20
2023-03-31T04:56:01.074Z,12.10
2023-03-31T04:58:31.495Z,12.10
2023-03-31T05:01:03.519Z,12.10
2023-03-31T05:03:33.765Z,12.10
2023-03-31T05:06:04.282Z,12.00
2023-03-31T05:08:34.690Z,12.00
2023-03-31T05:11:06.684Z,12.00
2023-03-31T05:13:36.728Z,12.00
2023-03-31T05:16:15.274Z,12.10
2023-03-31T05:18:46.973Z,12.10
2023-03-31T05:21:20.300Z,12.20
2023-03-31T05:23:51.108Z,12.20
2023-03-31T05:26:22.868Z,12.30
2023-03-31T05:28:54.645Z,12.30
2023-03-31T05:31:27.960Z,12.40
2023-03-31T05:33:57.790Z,12.30
2023-03-31T05:36:28.094Z,12.20
2023-03-31T05:38:57.974Z,12.20
2023-03-31T05:41:28.420Z,12.10
2023-03-31T05:43:58.524Z,12.30
2023-03-31T05:46:30.381Z,12.40
2023-03-31T05:49:01.716Z,12.50
2023-03-31T05:51:32.051Z,12.30
2023-03-31T05:54:01.856Z,12.50
2023-03-31T05:56:31.776Z,12.50
2023-03-31T05:59:03.268Z,12.50
2023-03-31T06:01:36.989Z,12.50
2023-03-31T06:04:07.278Z,12.50
2023-03-31T06:06:38.504Z,12.30
2023-03-31T06:09:09.024Z,12.40
2023-03-31T06:11:39.153Z,12.40
2023-03-31T06:14:09.252Z,12.40
2023-03-31T06:16:40.811Z,12.40
2023-03-31T06:19:10.818Z,12.40
2023-03-31T06:21:40.649Z,12.40
2023-03-31T06:24:12.200Z,12.40
2023-03-31T06:26:42.300Z,12.50
2023-03-31T06:29:12.230Z,12.40
2023-03-31T06:31:45.193Z,12.50
2023-03-31T06:34:15.130Z,12.40
2023-03-31T06:36:46.378Z,12.40
2023-03-31T06:39:16.390Z,12.50
2023-03-31T06:41:46.907Z,12.30
2023-03-31T06:44:25.622Z,12.30
2023-03-31T06:46:57.351Z,12.40
2023-03-31T06:49:27.324Z,12.40
2023-03-31T06:51:57.629Z,12.40
2023-03-31T06:54:27.444Z,12.60
2023-03-31T06:56:57.073Z,12.50
2023-03-31T06:59:27.190Z,12.50
2023-03-31T07:01:59.312Z,12.50
2023-03-31T07:04:29.556Z,12.50
2023-03-31T07:07:01.012Z,12.40
2023-03-31T07:09:30.910Z,12.50
2023-03-31T07:12:01.238Z,12.50
2023-03-31T07:14:31.355Z,12.40
2023-03-31T07:17:02.814Z,12.40
2023-03-31T07:19:32.732Z,12.40
2023-03-31T07:22:04.025Z,12.40
2023-03-31T07:24:34.197Z,12.30
2023-03-31T07:27:04.110Z,12.30
2023-03-31T07:29:34.343Z,12.40
2023-03-31T07:32:07.248Z,12.50
2023-03-31T07:34:38.494Z,12.40
2023-03-31T07:37:08.467Z,12.40
2023-03-31T07:39:38.696Z,12.40
2023-03-31T07:42:09.222Z,12.50
2023-03-31T07:44:39.648Z,12.50
2023-03-31T07:47:11.413Z,12.50
2023-03-31T07:49:41.634Z,12.50
2023-03-31T07:52:11.748Z,12.60
2023-03-31T07:54:41.565Z,12.60
2023-03-31T07:57:11.600Z,12.60
2023-03-31T07:59:42.013Z,12.60
2023-03-31T08:02:17.193Z,12.70
2023-03-31T08:04:53.918Z,12.60
2023-03-31T08:07:26.479Z,12.70
2023-03-31T08:09:56.199Z,12.70
2023-03-31T08:12:26.105Z,12.70
2023-03-31T08:14:56.039Z,12.80
2023-03-31T08:17:27.930Z,12.70
2023-03-31T08:20:01.682Z,12.90
2023-03-31T08:22:34.166Z,12.90
2023-03-31T08:25:04.181Z,12.90
2023-03-31T08:27:36.657Z,12.90
2023-03-31T08:30:09.628Z,12.90
2023-03-31T08:32:41.034Z,12.90
2023-03-31T08:35:11.618Z,12.90
2023-03-31T08:37:41.735Z,13.00
2023-03-31T08:40:18.722Z,12.80
2023-03-31T08:42:51.410Z,12.80
2023-03-31T08:45:25.562Z,12.90
2023-03-31T08:48:01.309Z,12.90
2023-03-31T08:50:34.061Z,13.00
2023-03-31T08:53:08.182Z,12.90
2023-03-31T08:55:48.710Z,13.10
2023-03-31T08:58:31.351Z,12.90
2023-03-31T09:01:09.067Z,12.90
2023-03-31T09:03:50.847Z,13.00
2023-03-31T09:06:26.877Z,13.00
2023-03-31T09:09:00.282Z,13.00
2023-03-31T09:11:37.136Z,13.00
2023-03-31T09:14:20.065Z,13.20
2023-03-31T09:17:06.823Z,13.00
2023-03-31T09:19:42.421Z,13.20
2023-03-31T09:22:18.287Z,13.30
2023-03-31T09:24:55.157Z,13.10
2023-03-31T09:27:31.963Z,13.30
2023-03-31T09:30:06.252Z,13.20
2023-03-31T09:32:38.472Z,13.20
2023-03-31T09:35:19.803Z,13.10
2023-03-31T09:37:51.150Z,13.30
2023-03-31T09:40:23.116Z,13.30
2023-03-31T09:42:59.170Z,13.40
2023-03-31T09:45:32.253Z,13.40
2023-03-31T09:48:08.793Z,13.30
2023-03-31T09:50:47.549Z,13.40
2023-03-31T09:53:22.191Z,13.60
2023-03-31T09:55:57.431Z,13.70
2023-03-31T09:58:27.632Z,13.70
2023-03-31T10:01:03.566Z,13.70
2023-03-31T10:03:37.720Z,13.90
2023-03-31T10:06:16.417Z,13.60
2023-03-31T10:08:52.388Z,13.40
2023-03-31T10:11:22.512Z,13.50
2023-03-31T10:13:59.384Z,13.60
2023-03-31T10:16:34.015Z,13.90
2023-03-31T10:19:22.049Z,13.80
2023-03-31T10:22:01.283Z,13.80
2023-03-31T10:24:40.831Z,13.80
2023-03-31T10:27:23.940Z,13.70
2023-03-31T10:29:57.135Z,13.60
2023-03-31T10:32:29.537Z,13.70
2023-03-31T10:35:01.162Z,13.80
2023-03-31T10:37:33.841Z,13.70
2023-03-31T10:40:07.331Z,13.70
2023-03-31T10:42:37.346Z,13.70
2023-03-31T10:45:36.585Z,13.90
2023-03-31T10:48:09.373Z,13.80
2023-03-31T10:50:39.663Z,13.70
2023-03-31T10:53:16.331Z,13.70
2023-03-31T10:56:04.983Z,13.70
2023-03-31T10:59:02.451Z,13.50
2023-03-31T11:01:43.600Z,13.70
2023-03-31T11:04:57.246Z,13.50
2023-03-31T11:07:49.041Z,13.50
2023-03-31T11:10:45.124Z,13.60
2023-03-31T11:13:21.477Z,13.80
2023-03-31T11:16:02.181Z,13.50
2023-03-31T11:18:44.843Z,13.70
2023-03-31T11:21:23.065Z,13.50
2023-03-31T11:24:01.280Z,13.50
2023-03-31T11:26:42.049Z,13.60
2023-03-31T11:29:28.025Z,13.80
2023-03-31T11:32:04.699Z,13.80
2023-03-31T11:34:57.245Z,13.80
2023-03-31T11:37:51.051Z,14.00
2023-03-31T11:40:43.748Z,14.10
2023-03-31T11:43:25.571Z,13.80
2023-03-31T11:45:59.427Z,13.80
2023-03-31T11:48:38.603Z,13.90
2023-03-31T11:51:16.193Z,14.00
2023-03-31T11:53:49.094Z,14.00
2023-03-31T11:56:20.948Z,13.90
2023-03-31T11:58:56.596Z,14.00
2023-03-31T12:01:33.567Z,14.30
2023-03-31T12:04:07.019Z,14.30
2023-03-31T12:06:42.410Z,14.60
2023-03-31T12:09:19.490Z,14.70
2023-03-31T12:11:55.251Z,15.20
2023-03-31T12:14:33.360Z,15.60
2023-03-31T12:17:07.376Z,15.70
2023-03-31T12:19:46.490Z,15.80
2023-03-31T12:22:21.010Z,15.50
2023-03-31T12:24:51.547Z,15.40
2023-03-31T12:27:25.352Z,15.50
2023-03-31T12:30:02.552Z,15.10
2023-03-31T12:32:37.369Z,15.10
2023-03-31T12:35:14.340Z,15.10
2023-03-31T12:38:12.869Z,15.20
2023-03-31T12:41:03.528Z,14.90
2023-03-31T12:43:55.063Z,14.90
2023-03-31T12:46:50.809Z,14.90
2023-03-31T12:49:55.193Z,14.90
2023-03-31T12:52:38.621Z,15.20
2023-03-31T12:55:38.246Z,15.60
2023-03-31T12:58:40.225Z,15.20
2023-03-31T13:01:16.823Z,15.00
2023-03-31T13:03:56.738Z,15.10
2023-03-31T13:07:01.861Z,15.00
2023-03-31T13:09:47.329Z,14.70
2023-03-31T13:12:21.756Z,14.60
2023-03-31T13:14:54.739Z,14.50
2023-03-31T13:17:30.624Z,14.50
2023-03-31T13:20:19.764Z,14.70
2023-03-31T13:22:50.901Z,14.60
2023-03-31T13:25:39.054Z,15.10
2023-03-31T13:28:17.261Z,15.30
2023-03-31T13:30:57.923Z,15.00
2023-03-31T13:33:34.701Z,15.10
2023-03-31T13:36:42.080Z,15.00
2023-03-31T13:39:32.999Z,15.00
2023-03-31T13:42:20.032Z,14.90
2023-03-31T13:45:09.532Z,15.00
2023-03-31T13:48:06.522Z,14.90
2023-03-31T13:51:09.734Z,14.90
2023-03-31T13:53:59.920Z,14.90
2023-03-31T13:56:51.476Z,14.80
2023-03-31T13:59:36.409Z,15.10
2023-03-31T14:02:37.553Z,14.80
2023-03-31T14:05:27.758Z,14.70
2023-03-31T14:08:02.991Z,14.80
2023-03-31T14:10:37.004Z,14.70
2023-03-31T14:13:09.252Z,14.90
2023-03-31T14:15:42.080Z,14.70
2023-03-31T14:18:17.919Z,14.70
2023-03-31T14:20:59.171Z,14.60
2023-03-31T14:23:44.857Z,14.70
2023-03-31T14:26:29.110Z,14.80
2023-03-31T14:29:13.051Z,14.70
2023-03-31T14:31:53.000Z,14.70
2023-03-31T14:34:43.333Z,14.60
2023-03-31T14:37:16.598Z,14.60
2023-03-31T14:39:49.194Z,14.50
2023-03-31T14:42:26.661Z,14.40
2023-03-31T14:44:59.032Z,14.60
2023-03-31T14:47:30.287Z,14.40
2023-03-31T14:50:07.827Z,14.40
2023-03-31T14:52:37.986Z,14.40
2023-03-31T14:55:09.052Z,14.10
2023-03-31T14:57:43.135Z,14.10
2023-03-31T15:02:48.435Z,14.20
2023-03-31T15:05:27.897Z,14.20
2023-03-31T15:08:00.625Z,14.20
2023-03-31T15:10:37.522Z,14.10
2023-03-31T15:13:13.876Z,14.00
2023-03-31T15:15:46.337Z,14.00
2023-03-31T15:18:18.124Z,13.90
2023-03-31T15:20:48.422Z,14.00
2023-03-31T15:23:26.563Z,13.80
2023-03-31T15:26:00.529Z,13.70
2023-03-31T15:28:39.356Z,13.60
2023-03-31T15:31:10.938Z,13.60
2023-03-31T15:33:43.146Z,13.60
2023-03-31T15:36:15.599Z,13.70
2023-03-31T15:38:46.179Z,13.70
2023-03-31T15:41:20.090Z,13.60
2023-03-31T15:44:07.637Z,13.70
2023-03-31T15:47:00.880Z,13.60
2023-03-31T15:49:32.424Z,13.70
2023-03-31T15:52:05.918Z,13.80
2023-03-31T15:54:39.134Z,13.50
2023-03-31T15:57:10.990Z,13.50
2023-03-31T15:59:55.771Z,13.50
2023-03-31T16:02:29.279Z,13.30
2023-03-31T16:05:01.583Z,13.20
2023-03-31T16:07:34.078Z,13.20
2023-03-31T16:10:09.207Z,13.20
2023-03-31T16:12:41.175Z,13.20
2023-03-31T16:15:16.731Z,13.30
2023-03-31T16:17:52.868Z,13.40
2023-03-31T16:20:25.872Z,13.20
2023-03-31T16:22:59.371Z,13.30
2023-03-31T16:25:32.155Z,13.20
2023-03-31T16:28:04.836Z,13.10
2023-03-31T16:30:40.887Z,13.10
2023-03-31T16:33:13.083Z,12.90
2023-03-31T16:35:44.507Z,13.20
2023-03-31T16:38:16.779Z,13.10
2023-03-31T16:40:48.843Z,13.00
2023-03-31T16:43:20.389Z,13.10
2023-03-31T16:45:53.383Z,12.90
2023-03-31T16:48:24.869Z,13.00
2023-03-31T16:50:56.688Z,13.00
2023-03-31T16:53:28.554Z,13.10
2023-03-31T16:55:59.324Z,12.90
2023-03-31T16:58:30.615Z,12.90
2023-03-31T17:01:04.981Z,12.80
2023-03-31T17:03:35.534Z,12.90
2023-03-31T17:06:09.897Z,12.80
2023-03-31T17:08:40.850Z,12.90
2023-03-31T17:11:13.127Z,12.80
2023-03-31T17:13:44.152Z,12.80
2023-03-31T17:19:05.992Z,12.80
2023-03-31T17:21:37.855Z,12.80
2023-03-31T17:24:12.072Z,12.70
2023-03-31T17:26:42.913Z,12.80
2023-03-31T17:29:14.666Z,12.70
2023-03-31T17:31:47.373Z,12.90
2023-03-31T17:34:17.868Z,12.80
2023-03-31T17:36:47.909Z,12.80
2023-03-31T17:39:17.847Z,12.80
2023-03-31T17:41:47.920Z,12.80
2023-03-31T17:44:17.518Z,12.70
2023-03-31T17:46:49.433Z,12.90
2023-03-31T17:49:19.495Z,12.70
2023-03-31T17:51:49.529Z,12.60
2023-03-31T17:54:19.537Z,12.60
2023-03-31T17:56:53.499Z,12.60
2023-03-31T17:59:24.491Z,11.20
2023-03-31T18:01:56.188Z,12.50
2023-03-31T18:04:26.398Z,12.50
2023-03-31T18:09:33.778Z,12.50
2023-03-31T18:12:03.794Z,12.50
2023-03-31T18:14:33.996Z,12.40
2023-03-31T18:17:06.467Z,12.40
2023-03-31T18:19:36.814Z,12.50
2023-03-31T18:22:06.824Z,12.30
2023-03-31T18:24:38.686Z,12.40
2023-03-31T18:27:09.535Z,12.50
2023-03-31T18:29:40.768Z,12.50
2023-03-31T18:32:14.254Z,12.50
2023-03-31T18:34:44.373Z,12.50
2023-03-31T18:37:14.381Z,12.50
2023-03-31T18:39:45.226Z,12.50
2023-03-31T18:42:15.546Z,12.50
2023-03-31T18:44:45.568Z,12.60
2023-03-31T18:47:17.213Z,12.60
2023-03-31T18:49:47.959Z,12.60
2023-03-31T18:52:18.174Z,12.60
2023-03-31T18:54:48.117Z,12.50
2023-03-31T18:59:49.149Z,12.50
2023-03-31T19:02:21.256Z,12.50
2023-03-31T19:04:51.326Z,12.40
2023-03-31T19:07:21.750Z,12.40
2023-03-31T19:09:52.602Z,12.60
2023-03-31T19:12:22.912Z,12.50
2023-03-31T19:14:53.147Z,12.60
2023-03-31T19:17:24.910Z,12.50
2023-03-31T19:19:57.052Z,12.60
2023-03-31T19:22:28.315Z,12.40
2023-03-31T19:25:00.176Z,12.40
2023-03-31T19:27:30.806Z,12.40
2023-03-31T19:30:00.843Z,12.40
2023-03-31T19:32:32.734Z,12.40
2023-03-31T19:35:06.186Z,12.40
2023-03-31T19:37:36.304Z,12.70
2023-03-31T19:40:07.032Z,12.70
2023-03-31T19:42:37.360Z,12.60
2023-03-31T19:45:08.637Z,12.60
2023-03-31T19:47:40.542Z,12.60
2023-03-31T19:50:11.802Z,12.70
2023-03-31T19:52:42.943Z,12.70
2023-03-31T19:55:14.192Z,12.40
2023-03-31T19:57:44.310Z,12.30
2023-03-31T20:00:18.649Z,12.30
2023-03-31T20:02:50.637Z,12.20
2023-03-31T20:05:20.613Z,12.20
2023-03-31T20:07:51.027Z,12.30
2023-03-31T20:10:21.349Z,12.10
2023-03-31T20:12:52.301Z,12.20
2023-03-31T20:15:22.299Z,12.20
2023-03-31T20:17:54.123Z,12.10
2023-03-31T20:20:25.637Z,12.00
2023-03-31T20:22:56.034Z,12.00
2023-03-31T20:25:26.060Z,11.80
2023-03-31T20:27:56.487Z,11.90
2023-03-31T20:30:26.559Z,11.80
2023-03-31T20:32:58.528Z,11.90
2023-03-31T20:35:29.009Z,11.90
2023-03-31T20:37:59.020Z,11.30
2023-03-31T20:40:29.241Z,11.50
2023-03-31T20:48:01.379Z,11.80
2023-03-31T20:50:36.684Z,11.70
2023-03-31T20:53:07.411Z,11.70
2023-03-31T20:55:41.112Z,11.50
2023-03-31T20:58:11.756Z,11.50
2023-03-31T21:00:42.173Z,11.70
2023-03-31T21:03:14.252Z,11.90
2023-03-31T21:05:46.205Z,11.80
2023-03-31T21:08:16.518Z,11.60
2023-03-31T21:10:47.457Z,11.70
2023-03-31T21:13:18.183Z,11.70
2023-03-31T21:15:50.979Z,12.10
2023-03-31T21:18:22.727Z,11.80
2023-03-31T21:20:53.970Z,11.70
2023-03-31T21:23:25.532Z,11.80
2023-03-31T21:25:58.562Z,11.70
2023-03-31T21:28:30.777Z,11.80
2023-03-31T21:31:04.789Z,11.90
2023-03-31T21:33:38.916Z,12.00
2023-03-31T21:36:11.151Z,12.00
2023-03-31T21:38:41.721Z,11.80
2023-03-31T21:41:13.490Z,11.50
2023-03-31T21:43:43.685Z,12.60
2023-03-31T21:46:18.598Z,11.40
2023-03-31T21:48:51.811Z,11.40
2023-03-31T21:51:22.861Z,11.30
2023-03-31T21:53:55.872Z,11.20
2023-03-31T21:56:28.144Z,11.50
2023-03-31T21:58:58.334Z,11.40
2023-03-31T22:01:31.452Z,11.40
2023-03-31T22:04:03.384Z,11.10
2023-03-31T22:06:35.140Z,11.10
2023-03-31T22:09:05.368Z,11.00
2023-03-31T22:11:35.916Z,11.00
2023-03-31T22:14:10.014Z,10.90
2023-03-31T22:16:41.553Z,11.00
2023-03-31T22:19:14.739Z,11.00
2023-03-31T22:21:45.581Z,10.90
2023-03-31T22:24:15.702Z,11.00
2023-03-31T22:26:45.813Z,10.90
2023-03-31T22:29:17.697Z,11.00
2023-03-31T22:31:47.949Z,11.00
2023-03-31T22:34:20.357Z,10.90
2023-03-31T22:36:50.490Z,11.00
2023-03-31T22:39:20.803Z,10.90
2023-03-31T22:44:20.944Z,10.60
2023-03-31T22:46:51.508Z,10.70
2023-03-31T22:49:23.136Z,10.50
2023-03-31T22:51:56.414Z,10.80
2023-03-31T22:54:26.338Z,10.90
2023-03-31T22:56:57.658Z,10.90
2023-03-31T22:59:28.004Z,10.70
2023-03-31T23:01:57.934Z,10.70
2023-03-31T23:04:31.626Z,10.70
2023-03-31T23:07:01.442Z,10.40
2023-03-31T23:09:31.243Z,10.70
2023-03-31T23:12:01.271Z,10.70
2023-03-31T23:14:31.178Z,10.70
2023-03-31T23:17:01.384Z,10.70
2023-03-31T23:19:34.196Z,10.90
2023-03-31T23:22:04.508Z,11.00
2023-03-31T23:24:34.737Z,10.70
2023-03-31T23:27:05.304Z,10.80
2023-03-31T23:29:36.007Z,10.90
2023-03-31T23:32:07.150Z,10.80
2023-03-31T23:34:42.075Z,10.80
2023-03-31T23:37:12.388Z,10.60
2023-03-31T23:39:42.194Z,10.50
2023-03-31T23:42:13.033Z,10.40
2023-03-31T23:44:43.157Z,10.40
2023-03-31T23:47:13.375Z,10.40
2023-03-31T23:49:44.617Z,10.50
2023-03-31T23:52:15.045Z,10.50
2023-03-31T23:54:45.175Z,10.30
2023-03-31T23:59:45.409Z,9.80
